Time;durP1;ratioP1;P1;durP2;ratioP2;P2;SDS_P1;SDS_P2;PMS_P1;PMS_P2;Temp;Humidity;BMP_temperature;BMP_pressure;BME280_temperature;BME280_humidity;BME280_pressure;Samples;Min_cycle;Max_cycle;Signal;HPM_P1;HPM_P2
2022/04/20 00:01:06;;;;;;;;;24.00;19.60;;;;;8.21;45.38;98555.56;6318149;27;97912;-68
2022/04/20 00:04:09;;;;;;;;;24.00;20.00;;;;;8.13;45.51;98554.97;6318412;27;96937;-68
2022/04/20 00:07:13;;;;;;;;;22.40;20.00;;;;;8.09;45.63;98561.81;6335814;27;96767;-68
2022/04/20 00:10:16;;;;;;;;;25.20;21.00;;;;;8.09;45.87;98564.50;6318603;27;98415;-69
2022/04/20 00:13:21;;;;;;;;;31.00;24.40;;;;;8.04;45.87;98558.94;6337681;27;96375;-68
2022/04/20 00:16:24;;;;;;;;;26.00;24.00;;;;;8.05;45.97;98549.88;6318502;27;97464;-69
2022/04/20 00:19:28;;;;;;;;;24.00;21.00;;;;;8.05;45.86;98555.25;6337510;27;97501;-68
2022/04/20 00:22:31;;;;;;;;;27.40;24.40;;;;;8.06;46.04;98555.00;6318963;27;96474;-68
2022/04/20 00:25:35;;;;;;;;;22.25;20.00;;;;;8.06;46.15;98549.63;6313630;27;97946;-68
2022/04/20 00:28:39;;;;;;;;;26.00;22.00;;;;;8.04;46.02;98558.94;6340774;27;97482;-69
2022/04/20 00:31:43;;;;;;;;;22.20;20.40;;;;;8.04;45.97;98549.03;6323002;27;97529;-68
2022/04/20 00:34:46;;;;;;;;;21.40;20.00;;;;;8.04;46.13;98556.28;6341663;27;97422;-68
2022/04/20 00:37:49;;;;;;;;;25.00;23.00;;;;;7.98;46.04;98557.94;6341719;27;97650;-68
2022/04/20 00:40:53;;;;;;;;;24.00;20.00;;;;;7.93;46.00;98559.63;6322857;27;98414;-69
2022/04/20 00:43:57;;;;;;;;;27.00;21.60;;;;;7.86;46.22;98548.91;6340749;27;96412;-68
2022/04/20 00:47:03;;;;;;;;;24.80;22.40;;;;;7.95;46.16;98558.38;6341397;27;96967;-69
2022/04/20 00:50:09;;;;;;;;;25.40;23.00;;;;;7.98;46.17;98554.44;6323191;27;97450;-69
2022/04/20 00:53:12;;;;;;;;;28.50;25.00;;;;;8.00;45.97;98563.94;6320780;27;97163;-68
2022/04/20 00:56:16;;;;;;;;;31.00;26.00;;;;;8.02;46.14;98558.34;6341812;27;97079;-69
2022/04/20 00:59:24;;;;;;;;;30.00;25.00;;;;;8.05;46.12;98568.66;6304343;27;97442;-69
2022/04/20 01:02:31;;;;;;;;;28.40;26.40;;;;;8.08;46.23;98560.16;6322580;27;97361;-68
2022/04/20 01:05:34;;;;;;;;;34.00;29.00;;;;;8.14;46.23;98562.00;6322202;27;96593;-69
2022/04/20 01:08:47;;;;;;;;;34.80;28.40;;;;;8.18;46.29;98563.22;6340801;27;96525;-68
2022/04/20 01:12:18;;;;;;;;;31.25;28.50;;;;;8.24;46.26;98557.81;6340631;27;97635;-69
2022/04/20 01:15:36;;;;;;;;;29.00;26.75;;;;;8.28;46.20;98558.22;6322158;27;96586;-69
2022/04/20 01:19:01;;;;;;;;;35.60;30.00;;;;;8.31;46.24;98555.13;6290110;27;99593;-69
2022/04/20 01:22:24;;;;;;;;;43.00;34.75;;;;;8.25;46.30;98543.38;6321088;27;99463;-69
2022/04/20 01:25:34;;;;;;;;;42.40;34.40;;;;;8.41;46.24;98554.66;6301682;27;96884;-69
2022/04/20 01:29:03;;;;;;;;;40.50;33.50;;;;;8.39;46.06;98559.44;6311008;27;97103;-68
2022/04/20 01:32:12;;;;;;;;;42.50;35.25;;;;;8.46;46.08;98547.59;6326500;27;96518;-70
2022/04/20 01:35:24;;;;;;;;;41.00;33.40;;;;;8.42;46.13;98543.69;6302025;27;97794;-69
2022/04/20 01:38:29;;;;;;;;;42.00;35.00;;;;;8.46;46.18;98547.59;6302689;27;97536;-70
2022/04/20 01:41:32;;;;;;;;;41.00;33.40;;;;;8.48;46.15;98545.53;6303548;27;99796;-67
2022/04/20 01:44:36;;;;;;;;;42.00;34.00;;;;;8.49;46.11;98538.28;6302475;27;98632;-70
2022/04/20 01:47:46;;;;;;;;;41.80;33.40;;;;;8.54;46.17;98535.78;6318563;27;97597;-71
2022/04/20 01:54:34;;;;;;;;;43.50;32.75;;;;;8.67;45.94;98538.38;6318422;27;97580;-70
2022/04/20 01:58:01;;;;;;;;;42.20;33.00;;;;;8.74;45.69;98538.31;6323728;27;96621;-70
2022/04/20 02:04:45;;;;;;;;;39.00;32.50;;;;;8.90;45.22;98533.22;6295400;27;97500;-70
2022/04/20 02:07:49;;;;;;;;;40.20;32.00;;;;;8.91;44.84;98529.50;6333917;27;98171;-70
2022/04/20 02:10:57;;;;;;;;;37.20;30.80;;;;;8.94;45.02;98526.34;6312444;27;96731;-69
2022/04/20 02:14:01;;;;;;;;;36.00;30.60;;;;;9.02;44.90;98530.66;6329678;27;98081;-69
2022/04/20 02:17:05;;;;;;;;;36.25;32.00;;;;;8.87;45.09;98508.66;6312678;27;97375;-69
2022/04/20 02:20:17;;;;;;;;;43.00;33.00;;;;;9.03;45.06;98521.53;6295101;27;98419;-68
2022/04/20 02:23:20;;;;;;;;;39.25;33.25;;;;;9.01;44.93;98520.94;6295102;27;96651;-69
2022/04/20 02:26:26;;;;;;;;;36.50;32.00;;;;;8.89;45.26;98507.41;6294581;27;96630;-68
2022/04/20 02:29:29;;;;;;;;;39.75;33.00;;;;;8.78;45.39;98499.22;6294789;27;96719;-69
2022/04/20 02:32:32;;;;;;;;;45.00;36.00;;;;;8.89;45.23;98503.88;6311946;27;96890;-70
2022/04/20 02:35:38;;;;;;;;;41.20;33.80;;;;;8.91;45.25;98507.97;6320164;27;97139;-69
2022/04/20 02:38:42;;;;;;;;;39.00;33.00;;;;;8.95;45.23;98500.28;6301727;27;99010;-69
2022/04/20 02:41:50;;;;;;;;;38.40;33.80;;;;;8.96;45.22;98504.63;6339777;27;97166;-68
2022/04/20 02:44:53;;;;;;;;;44.60;33.00;;;;;8.94;45.25;98501.34;6302294;27;97897;-68
2022/04/20 02:47:56;;;;;;;;;38.20;32.00;;;;;8.88;45.21;98505.75;6301863;27;98409;-69
2022/04/20 02:50:59;;;;;;;;;39.25;32.00;;;;;8.74;45.35;98514.13;6339397;27;97496;-68
2022/04/20 02:54:03;;;;;;;;;38.40;32.00;;;;;8.73;45.40;98516.00;6311305;27;96468;-69
2022/04/20 02:57:10;;;;;;;;;40.00;32.00;;;;;8.57;45.76;98513.84;6293530;27;97645;-68
2022/04/20 03:00:15;;;;;;;;;42.40;33.00;;;;;8.47;46.23;98514.31;6294612;27;97803;-68
2022/04/20 03:03:28;;;;;;;;;41.75;32.75;;;;;8.34;46.47;98518.97;6310594;27;97515;-70
2022/04/20 03:06:37;;;;;;;;;40.00;32.00;;;;;8.24;46.53;98519.41;6295899;27;98460;-69
2022/04/20 03:09:47;;;;;;;;;37.00;33.00;;;;;8.04;47.61;98516.81;6294736;27;97041;-69
2022/04/20 03:12:53;;;;;;;;;39.80;32.60;;;;;7.95;47.36;98517.28;6290045;27;96698;-69
2022/04/20 03:15:57;;;;;;;;;41.80;33.00;;;;;7.83;47.85;98514.44;6309823;27;97012;-68
2022/04/20 03:19:00;;;;;;;;;38.00;32.00;;;;;7.77;47.84;98516.09;6292176;27;97765;-69
2022/04/20 03:22:06;;;;;;;;;39.50;32.00;;;;;7.72;48.34;98513.25;6283544;27;98472;-69
2022/04/20 03:25:11;;;;;;;;;40.00;32.00;;;;;7.69;48.46;98511.00;6274975;27;98918;-69
2022/04/20 03:28:36;;;;;;;;;34.00;31.40;;;;;7.66;48.48;98505.25;6268051;27;96749;-70
2022/04/20 03:31:39;;;;;;;;;35.00;32.00;;;;;7.67;48.34;98504.22;6306476;27;97582;-68
2022/04/20 03:34:43;;;;;;;;;32.50;26.50;;;;;7.64;48.50;98515.34;6310948;27;96788;-69
2022/04/20 03:37:48;;;;;;;;;36.00;31.00;;;;;7.56;48.85;98504.84;6312363;27;96526;-69
2022/04/20 03:40:51;;;;;;;;;37.67;32.00;;;;;7.59;48.67;98502.56;6281568;27;99453;-69
2022/04/20 03:43:56;;;;;;;;;35.60;30.00;;;;;7.58;48.80;98503.59;6303852;27;96495;-68
2022/04/20 03:47:00;;;;;;;;;38.00;31.20;;;;;7.57;49.14;98507.34;6299458;27;96771;-70
2022/04/20 03:50:03;;;;;;;;;37.80;32.00;;;;;7.57;48.91;98515.38;6333029;27;96970;-70
2022/04/20 03:53:07;;;;;;;;;40.00;32.00;;;;;7.56;49.05;98516.41;6313824;27;96879;-70
2022/04/20 03:56:10;;;;;;;;;36.60;31.00;;;;;7.62;48.79;98510.22;6312643;27;97755;-70
2022/04/20 03:59:16;;;;;;;;;39.80;33.00;;;;;7.65;48.84;98511.63;6308255;27;96559;-69
2022/04/20 04:02:21;;;;;;;;;40.00;32.00;;;;;7.71;48.55;98525.03;6309368;27;96694;-68
2022/04/20 04:05:56;;;;;;;;;37.75;32.75;;;;;7.63;48.88;98517.19;6301867;27;97908;-69
2022/04/20 04:09:01;;;;;;;;;36.60;32.00;;;;;7.62;48.97;98526.31;6317589;27;97509;-69
2022/04/20 04:12:05;;;;;;;;;36.60;31.00;;;;;7.69;48.96;98526.25;6321718;27;97237;-69
2022/04/20 04:15:11;;;;;;;;;38.80;33.40;;;;;7.76;48.83;98530.59;6314176;27;97132;-69
2022/04/20 04:18:15;;;;;;;;;40.40;34.40;;;;;7.82;48.91;98532.41;6339716;27;96997;-69
2022/04/20 04:21:24;;;;;;;;;38.60;33.00;;;;;7.82;49.05;98534.25;6303901;27;97519;-69
2022/04/20 04:24:39;;;;;;;;;44.00;36.00;;;;;7.75;49.23;98503.97;6285780;27;99468;-69
2022/04/20 04:27:47;;;;;;;;;46.25;36.50;;;;;8.08;49.02;98538.69;6297296;27;97436;-69
2022/04/20 04:30:52;;;;;;;;;46.20;38.00;;;;;8.03;49.40;98539.34;6302006;27;98528;-70
2022/04/20 04:33:55;;;;;;;;;45.25;36.00;;;;;8.09;49.48;98545.72;6322044;27;96600;-70
2022/04/20 04:36:59;;;;;;;;;46.20;37.60;;;;;8.20;48.84;98543.19;6320813;27;96603;-69
2022/04/20 04:40:04;;;;;;;;;44.75;36.00;;;;;8.27;48.94;98548.50;6300661;27;96796;-69
2022/04/20 04:43:07;;;;;;;;;47.00;37.00;;;;;8.44;48.36;98538.94;6318745;27;97316;-69
2022/04/20 04:49:52;;;;;;;;;45.00;38.00;;;;;8.56;48.52;98547.13;6310087;27;97414;-69
2022/04/20 04:52:55;;;;;;;;;43.00;36.00;;;;;8.51;48.50;98541.56;6276993;27;98332;-69
2022/04/20 04:55:59;;;;;;;;;49.00;38.80;;;;;8.52;48.23;98536.00;6309967;27;97858;-70
2022/04/20 04:59:02;;;;;;;;;45.00;37.75;;;;;8.72;48.34;98543.09;6310632;27;97545;-70
2022/04/20 05:02:09;;;;;;;;;48.40;38.40;;;;;8.83;48.14;98543.22;6299939;27;96994;-69
2022/04/20 05:05:13;;;;;;;;;47.60;38.60;;;;;8.87;48.56;98540.91;6320930;27;97388;-69
2022/04/20 05:08:16;;;;;;;;;49.00;39.00;;;;;8.95;48.29;98538.75;6316606;27;96804;-69
2022/04/20 05:11:20;;;;;;;;;47.25;39.00;;;;;9.04;48.55;98533.94;6302359;27;96678;-69
2022/04/20 05:14:24;;;;;;;;;49.00;38.60;;;;;9.12;48.26;98539.88;6277211;27;98301;-70
2022/04/20 05:17:31;;;;;;;;;49.80;39.80;;;;;9.27;48.17;98533.31;6296161;27;97460;-70
2022/04/20 05:20:35;;;;;;;;;50.75;41.75;;;;;9.41;47.97;98529.44;6317838;27;96823;-69
2022/04/20 05:23:39;;;;;;;;;53.00;42.60;;;;;9.50;47.81;98528.94;6317465;27;96844;-69
2022/04/20 05:26:43;;;;;;;;;51.50;41.00;;;;;9.58;47.79;98536.69;6319697;27;97950;-70
2022/04/20 05:29:46;;;;;;;;;55.20;43.00;;;;;9.67;47.83;98523.78;6320171;27;97429;-70
2022/04/20 05:32:52;;;;;;;;;56.00;42.00;;;;;9.72;47.76;98523.94;6303600;27;96983;-69
2022/04/20 05:35:59;;;;;;;;;55.50;41.00;;;;;9.87;47.50;98527.03;6322475;27;96454;-70
2022/04/20 05:42:25;;;;;;;;;54.00;41.60;;;;;10.11;47.28;98530.69;6322083;27;97579;-68
2022/04/20 05:45:29;;;;;;;;;52.00;40.80;;;;;10.18;47.15;98528.75;6321546;27;97361;-68
2022/04/20 05:48:47;;;;;;;;;53.00;42.00;;;;;10.03;47.72;98525.59;6339141;27;96330;-69
2022/04/20 05:51:51;;;;;;;;;52.50;42.00;;;;;10.18;47.36;98528.75;6304239;27;98268;-69
2022/04/20 05:54:57;;;;;;;;;54.20;42.00;;;;;10.24;47.19;98529.72;6303652;27;98631;-69
2022/04/20 05:58:01;;;;;;;;;56.00;43.00;;;;;10.25;47.47;98528.66;6321607;27;96981;-69
2022/04/20 06:01:05;;;;;;;;;54.20;43.00;;;;;10.27;47.29;98526.56;6321472;27;97132;-69
2022/04/20 06:04:30;;;;;;;;;54.20;43.00;;;;;10.30;47.20;98524.25;6320115;27;96631;-70
2022/04/20 06:07:40;;;;;;;;;56.40;43.20;;;;;10.25;47.33;98490.97;6320627;27;98482;-68
2022/04/20 06:10:59;;;;;;;;;53.00;44.00;;;;;10.24;47.46;98509.00;6302878;27;98683;-69
2022/04/20 06:14:03;;;;;;;;;56.00;43.00;;;;;10.28;47.50;98512.88;6321039;27;96733;-70
2022/04/20 06:17:13;;;;;;;;;55.00;43.40;;;;;10.27;47.80;98513.09;6320617;27;97498;-69
2022/04/20 06:20:24;;;;;;;;;54.80;43.00;;;;;10.26;47.61;98509.56;6321093;27;97274;-70
2022/04/20 06:23:45;;;;;;;;;55.00;43.00;;;;;10.32;47.82;98505.13;6338912;27;97449;-69
2022/04/20 06:27:05;;;;;;;;;52.60;42.00;;;;;10.42;47.22;98508.94;6320785;27;97539;-69
2022/04/20 06:30:17;;;;;;;;;56.40;44.00;;;;;10.45;47.36;98509.53;6320525;27;96399;-70
2022/04/20 06:33:32;;;;;;;;;56.00;43.50;;;;;10.41;47.78;98506.44;6339563;27;97556;-69
2022/04/20 06:36:39;;;;;;;;;54.00;43.00;;;;;10.37;47.79;98500.72;6337796;27;97085;-69
2022/04/20 06:40:01;;;;;;;;;55.50;44.00;;;;;10.50;47.41;98502.41;6337168;27;97571;-70
2022/04/20 06:43:23;;;;;;;;;58.80;44.00;;;;;10.57;47.50;98497.72;6320172;27;97167;-68
2022/04/20 06:47:01;;;;;;;;;57.00;44.00;;;;;10.68;47.28;98483.44;6338127;27;97212;-69
2022/04/20 06:50:28;;;;;;;;;58.80;44.00;;;;;10.60;47.33;98472.19;6308165;27;98549;-71
2022/04/20 07:00:32;;;;;;;;;58.00;44.00;;;;;11.06;46.52;98477.59;6318326;27;96680;-71
2022/04/20 07:03:45;;;;;;;;;57.20;43.60;;;;;11.05;46.41;98481.34;6318897;27;97188;-70
2022/04/20 07:07:07;;;;;;;;;54.50;44.00;;;;;11.05;46.55;98475.97;6319583;27;96432;-70
2022/04/20 07:10:35;;;;;;;;;57.25;44.75;;;;;11.17;46.51;98468.69;6313667;27;96776;-69
2022/04/20 07:13:40;;;;;;;;;55.00;43.00;;;;;11.18;46.41;98470.34;6314554;27;97091;-69
2022/04/20 07:16:43;;;;;;;;;53.00;43.60;;;;;11.38;45.83;98471.84;6310570;27;96438;-69
2022/04/20 07:20:01;;;;;;;;;53.00;42.75;;;;;11.47;45.88;98462.34;6311612;27;97347;-68
2022/04/20 07:23:17;;;;;;;;;54.00;42.40;;;;;11.48;45.37;98463.97;6311838;27;96575;-70
2022/04/20 07:26:29;;;;;;;;;54.50;42.00;;;;;11.50;45.04;98461.84;6311108;27;98099;-70
2022/04/20 07:29:46;;;;;;;;;51.33;39.00;;;;;11.60;45.11;98460.19;6293840;27;99843;-68
2022/04/20 07:33:08;;;;;;;;;54.00;41.00;;;;;11.83;44.36;98455.78;6312395;27;97469;-70
2022/04/20 07:36:31;;;;;;;;;49.00;38.00;;;;;11.98;43.88;98462.31;6316345;27;98110;-70
2022/04/20 07:39:54;;;;;;;;;50.00;41.00;;;;;12.20;43.64;98458.94;6314370;27;97030;-70
2022/04/20 07:43:02;;;;;;;;;47.00;38.60;;;;;12.31;42.89;98456.19;6310064;27;96994;-70
2022/04/20 07:46:24;;;;;;;;;48.80;38.20;;;;;12.42;42.14;98457.16;6315268;27;97248;-69
2022/04/20 07:53:45;;;;;;;;;49.40;36.40;;;;;12.30;42.90;98448.31;6296462;27;96723;-68
2022/04/20 07:57:03;;;;;;;;;51.00;40.00;;;;;12.30;42.61;98446.44;6297990;27;98563;-70
2022/04/20 08:00:28;;;;;;;;;47.00;37.00;;;;;12.23;42.72;98429.53;6314766;27;97592;-70
2022/04/20 08:03:57;;;;;;;;;44.50;36.00;;;;;12.26;42.86;98434.47;6314212;27;96661;-69
2022/04/20 08:07:21;;;;;;;;;46.80;36.00;;;;;12.18;42.74;98428.63;6314907;27;97479;-69
2022/04/20 08:10:26;;;;;;;;;47.40;36.60;;;;;12.24;42.36;98419.56;6297256;27;98781;-70
2022/04/20 08:17:13;;;;;;;;;42.60;34.00;;;;;12.20;42.64;98440.03;6305850;27;97042;-69
2022/04/20 08:20:16;;;;;;;;;47.00;36.75;;;;;11.98;43.09;98431.78;6290493;27;96558;-69
2022/04/20 08:23:32;;;;;;;;;43.40;35.40;;;;;11.71;43.62;98440.44;6288969;27;97428;-69
2022/04/20 08:26:36;;;;;;;;;45.40;36.00;;;;;11.75;43.58;98438.09;6287667;27;96442;-69
2022/04/20 08:29:39;;;;;;;;;43.80;35.00;;;;;11.73;43.50;98437.50;6271494;27;97539;-70
2022/04/20 08:32:44;;;;;;;;;45.80;35.00;;;;;11.89;43.40;98441.34;6287812;27;97758;-70
2022/04/20 08:35:47;;;;;;;;;44.00;34.40;;;;;12.01;42.77;98444.81;6288941;27;97054;-69
2022/04/20 08:38:51;;;;;;;;;38.80;33.00;;;;;12.19;43.20;98435.69;6287491;27;98501;-70
2022/04/20 08:41:55;;;;;;;;;43.00;34.00;;;;;12.14;42.23;98433.72;6288266;27;96535;-70
2022/04/20 08:45:05;;;;;;;;;37.20;31.80;;;;;12.24;42.03;98433.06;6288207;27;96829;-70
2022/04/20 08:48:10;;;;;;;;;36.25;30.00;;;;;12.27;41.75;98429.88;6287168;27;97480;-69
2022/04/20 08:51:14;;;;;;;;;34.00;30.00;;;;;12.43;41.78;98426.38;6270002;27;96725;-70
2022/04/20 08:54:19;;;;;;;;;37.00;31.60;;;;;12.49;41.56;98428.09;6289085;27;96464;-69
2022/04/20 08:57:23;;;;;;;;;33.40;30.00;;;;;12.69;41.33;98423.03;6288789;27;96578;-70
2022/04/20 09:00:27;;;;;;;;;33.40;30.00;;;;;12.75;41.37;98421.22;6288638;27;98134;-71
2022/04/20 09:03:35;;;;;;;;;30.00;28.80;;;;;12.82;40.72;98416.47;6289933;27;97426;-69
2022/04/20 09:06:45;;;;;;;;;30.80;28.00;;;;;12.77;40.67;98422.59;6288911;27;96439;-69
2022/04/20 09:09:48;;;;;;;;;31.50;27.50;;;;;12.82;40.66;98411.88;6288905;27;97615;-70
2022/04/20 09:13:04;;;;;;;;;32.20;27.00;;;;;12.92;40.54;98428.25;6288475;27;97480;-70
2022/04/20 09:16:08;;;;;;;;;28.20;25.60;;;;;12.95;40.50;98425.03;6295812;27;97397;-70
2022/04/20 09:19:13;;;;;;;;;31.60;29.00;;;;;12.95;40.53;98427.75;6296601;27;96813;-69
2022/04/20 09:22:21;;;;;;;;;27.00;25.00;;;;;12.85;40.25;98424.09;6296931;27;97051;-69
2022/04/20 09:25:31;;;;;;;;;31.00;28.00;;;;;12.72;40.57;98419.81;6313824;27;97794;-69
2022/04/20 09:28:36;;;;;;;;;30.40;28.40;;;;;12.78;40.57;98420.72;6332370;27;97659;-70
2022/04/20 09:31:45;;;;;;;;;28.40;25.60;;;;;12.79;40.44;98423.19;6314808;27;97587;-69
2022/04/20 09:34:56;;;;;;;;;27.60;25.00;;;;;12.70;40.43;98432.78;6321936;27;97397;-69
2022/04/20 09:38:05;;;;;;;;;29.60;25.60;;;;;12.79;40.34;98416.97;6302914;27;98488;-69
2022/04/20 09:41:35;;;;;;;;;31.25;24.25;;;;;12.90;40.30;98419.56;6287076;27;96810;-70
2022/04/20 09:44:40;;;;;;;;;25.60;25.00;;;;;12.77;40.09;98411.78;6320680;27;97760;-70
2022/04/20 09:51:10;;;;;;;;;28.80;26.40;;;;;12.64;40.23;98401.31;6321622;27;97027;-72
2022/04/20 09:54:26;;;;;;;;;28.40;25.40;;;;;12.76;40.26;98401.22;6339806;27;97048;-70
2022/04/20 09:57:30;;;;;;;;;30.00;27.80;;;;;12.59;40.58;98409.34;6338742;27;97483;-71
2022/04/20 10:00:38;;;;;;;;;28.00;24.00;;;;;12.62;40.78;98392.63;6320740;27;98467;-70
2022/04/20 10:03:42;;;;;;;;;25.00;22.25;;;;;12.48;40.29;98396.72;6338989;27;97199;-70
2022/04/20 10:06:46;;;;;;;;;24.20;21.00;;;;;12.49;40.21;98388.38;6301332;27;98915;-70
2022/04/20 10:09:50;;;;;;;;;22.00;20.00;;;;;12.52;40.19;98387.03;6339127;27;97700;-71
2022/04/20 10:12:55;;;;;;;;;21.00;20.00;;;;;12.58;40.14;98383.38;6320391;27;97949;-70
2022/04/20 10:16:07;;;;;;;;;24.80;21.40;;;;;12.51;40.02;98380.03;6319778;27;97048;-70
2022/04/20 10:19:13;;;;;;;;;19.00;18.00;;;;;12.67;39.55;98387.28;6319291;27;97815;-70
2022/04/20 10:22:24;;;;;;;;;22.00;18.50;;;;;12.79;39.46;98400.72;6301818;27;97175;-69
2022/04/20 10:25:28;;;;;;;;;21.40;20.00;;;;;12.73;38.84;98388.19;6338718;27;96432;-68
2022/04/20 10:28:37;;;;;;;;;17.50;16.50;;;;;12.77;38.90;98387.44;6320819;27;97416;-69
2022/04/20 10:31:45;;;;;;;;;20.00;18.00;;;;;12.83;38.81;98382.94;6339214;27;97423;-70
2022/04/20 10:34:50;;;;;;;;;19.40;18.40;;;;;12.78;38.27;98397.22;6318137;27;97895;-70
2022/04/20 10:38:11;;;;;;;;;19.00;18.00;;;;;12.89;38.13;98407.13;6319568;27;96875;-70
2022/04/20 10:41:25;;;;;;;;;20.40;18.00;;;;;12.73;38.08;98386.31;6318832;27;96581;-70
2022/04/20 10:45:05;;;;;;;;;18.00;16.75;;;;;13.03;37.61;98384.06;6317197;27;97454;-70
2022/04/20 10:48:17;;;;;;;;;18.60;15.00;;;;;13.41;37.18;98385.94;6332391;27;96533;-69
2022/04/20 10:51:23;;;;;;;;;18.00;16.60;;;;;13.45;36.44;98373.50;6319418;27;96541;-69
2022/04/20 10:54:29;;;;;;;;;16.00;14.40;;;;;13.58;36.49;98368.81;6336077;27;96706;-69
2022/04/20 10:57:45;;;;;;;;;18.00;15.40;;;;;13.77;35.93;98364.69;6302677;27;96682;-69
2022/04/20 11:01:08;;;;;;;;;16.00;13.50;;;;;14.00;35.64;98358.13;6320123;27;96574;-69
2022/04/20 11:04:11;;;;;;;;;15.00;13.60;;;;;14.26;35.00;98357.28;6320254;27;96924;-71
2022/04/20 11:07:22;;;;;;;;;15.20;14.00;;;;;14.33;34.57;98360.59;6337953;27;97895;-69
2022/04/20 11:10:27;;;;;;;;;12.00;11.00;;;;;14.48;33.84;98352.59;6320389;27;97191;-69
2022/04/20 11:21:10;;;;;;;;;14.00;12.00;;;;;14.70;33.21;98358.75;6319174;27;97063;-70
2022/04/20 11:24:29;;;;;;;;;13.33;12.00;;;;;14.79;32.63;98360.97;6338223;27;97492;-69
2022/04/20 11:27:38;;;;;;;;;10.25;10.25;;;;;14.75;32.28;98352.53;6337941;27;97361;-69
2022/04/20 11:30:45;;;;;;;;;14.00;12.60;;;;;14.96;32.11;98348.03;6333282;27;97573;-69
2022/04/20 11:33:48;;;;;;;;;16.00;12.75;;;;;14.98;32.14;98345.88;6337075;27;97353;-69
2022/04/20 11:37:00;;;;;;;;;15.00;13.00;;;;;15.01;31.63;98353.50;6317430;27;98093;-70
2022/04/20 11:40:12;;;;;;;;;15.75;12.75;;;;;15.02;31.94;98352.41;6280926;27;99999;-69
2022/04/20 11:43:17;;;;;;;;;13.00;12.00;;;;;14.97;31.84;98355.09;6314052;27;96507;-71
2022/04/20 11:46:44;;;;;;;;;12.40;11.00;;;;;15.06;31.63;98345.38;6301212;27;98680;-69
2022/04/20 11:49:49;;;;;;;;;12.00;11.00;;;;;14.53;32.43;98340.97;6310796;27;98380;-69
2022/04/20 11:53:02;;;;;;;;;12.20;11.00;;;;;14.57;32.50;98339.38;6318771;27;98852;-69
2022/04/20 11:56:38;;;;;;;;;15.00;13.00;;;;;14.32;32.53;98345.38;6337191;27;96420;-70
2022/04/20 11:59:48;;;;;;;;;14.00;13.40;;;;;14.45;32.35;98326.03;6315082;27;97790;-70
2022/04/20 12:02:51;;;;;;;;;14.80;13.80;;;;;14.53;32.77;98325.53;6335692;27;96875;-70
2022/04/20 12:06:01;;;;;;;;;16.80;13.80;;;;;14.74;32.34;98326.47;6315900;27;98344;-71
2022/04/20 12:09:07;;;;;;;;;13.00;13.00;;;;;14.82;32.21;98327.88;6331866;27;96798;-70
2022/04/20 12:12:12;;;;;;;;;13.50;13.50;;;;;14.63;32.31;98317.47;6337662;27;97502;-69
2022/04/20 12:15:21;;;;;;;;;14.67;12.00;;;;;14.68;32.19;98327.53;6318907;27;96797;-71
2022/04/20 12:18:30;;;;;;;;;16.40;15.20;;;;;14.85;32.27;98317.34;6336154;27;97502;-70
2022/04/20 12:21:40;;;;;;;;;15.50;14.50;;;;;15.00;32.11;98330.16;6299186;27;97466;-71
2022/04/20 12:24:44;;;;;;;;;14.40;14.00;;;;;14.83;31.97;98310.50;6315349;27;97440;-72
2022/04/20 12:27:52;;;;;;;;;15.00;13.00;;;;;14.84;31.92;98323.00;6316189;27;97363;-70
2022/04/20 12:31:01;;;;;;;;;12.40;11.40;;;;;14.89;32.40;98331.19;6279512;27;98614;-71
2022/04/20 12:34:06;;;;;;;;;16.00;14.00;;;;;14.77;32.54;98333.25;6297110;27;97254;-69
2022/04/20 12:37:15;;;;;;;;;16.40;15.00;;;;;14.76;32.60;98337.88;6309055;27;97341;-70
2022/04/20 12:40:24;;;;;;;;;16.80;14.80;;;;;14.73;32.35;98331.09;6316256;27;97511;-70
2022/04/20 12:43:34;;;;;;;;;15.80;15.00;;;;;14.57;32.56;98334.78;6323012;27;96671;-70
2022/04/20 12:46:39;;;;;;;;;16.60;13.60;;;;;14.57;32.70;98332.06;6322781;27;97150;-71
2022/04/20 12:49:45;;;;;;;;;18.50;16.00;;;;;14.40;32.91;98320.56;6340894;27;96790;-69
2022/04/20 12:53:06;;;;;;;;;17.00;16.00;;;;;14.32;32.91;98332.66;6339567;27;96516;-70
2022/04/20 13:02:59;;;;;;;;;21.00;18.00;;;;;14.62;33.06;98344.84;6299503;27;98419;-69
2022/04/20 13:06:06;;;;;;;;;18.60;16.60;;;;;14.63;33.05;98338.34;6317400;27;96775;-69
2022/04/20 13:09:09;;;;;;;;;15.60;15.00;;;;;14.73;33.46;98338.41;6304235;27;99586;-70
2022/04/20 13:12:13;;;;;;;;;17.67;16.67;;;;;14.63;33.18;98350.00;6297253;27;97723;-69
2022/04/20 13:15:18;;;;;;;;;20.80;18.20;;;;;14.65;33.42;98341.63;6305673;27;96855;-69
2022/04/20 13:18:23;;;;;;;;;19.00;16.60;;;;;14.64;33.31;98353.53;6303180;27;99462;-68
2022/04/20 13:21:26;;;;;;;;;18.00;16.20;;;;;14.31;33.38;98355.44;6338758;27;96519;-69
2022/04/20 13:27:56;;;;;;;;;23.00;20.25;;;;;13.95;34.24;98352.66;6320692;27;97415;-70
2022/04/20 13:30:59;;;;;;;;;19.00;18.60;;;;;13.88;34.49;98358.28;6326717;27;97716;-70
2022/04/20 13:34:04;;;;;;;;;18.00;15.20;;;;;13.83;34.60;98369.06;6312683;27;96817;-69
2022/04/20 13:37:08;;;;;;;;;19.80;17.40;;;;;13.82;34.85;98365.56;6331820;27;96653;-71
2022/04/20 13:40:12;;;;;;;;;18.60;16.20;;;;;13.68;34.88;98371.63;6319237;27;98406;-70
2022/04/20 13:43:16;;;;;;;;;23.00;18.00;;;;;13.76;35.03;98371.16;6317276;27;96749;-69
2022/04/20 13:46:19;;;;;;;;;18.75;16.25;;;;;13.52;34.93;98378.75;6301243;27;97981;-70
2022/04/20 13:49:25;;;;;;;;;20.67;20.00;;;;;13.50;35.24;98377.34;6338328;27;96836;-70
2022/04/20 13:52:36;;;;;;;;;19.00;17.60;;;;;13.46;35.45;98379.75;6301683;27;100065;-70
2022/04/20 13:55:39;;;;;;;;;19.00;17.00;;;;;13.63;35.48;98383.22;6328743;27;97260;-70
2022/04/20 13:58:42;;;;;;;;;20.00;17.00;;;;;13.51;35.39;98379.81;6319632;27;100148;-69
2022/04/20 14:01:46;;;;;;;;;23.00;19.20;;;;;13.61;35.74;98379.94;6335842;27;97639;-70
2022/04/20 14:04:52;;;;;;;;;21.20;17.60;;;;;13.66;35.50;98392.72;6329904;27;98524;-70
2022/04/20 14:07:56;;;;;;;;;20.00;19.00;;;;;13.51;35.40;98371.69;6330857;27;97394;-68
2022/04/20 14:10:59;;;;;;;;;19.00;18.20;;;;;13.68;35.72;98374.34;6305308;27;97300;-70
2022/04/20 14:14:03;;;;;;;;;21.00;19.00;;;;;13.79;35.51;98382.28;6332765;27;98275;-70
2022/04/20 14:17:06;;;;;;;;;22.00;19.75;;;;;13.73;35.41;98377.09;6324220;27;96800;-70
2022/04/20 14:20:13;;;;;;;;;21.60;19.60;;;;;13.42;35.74;98356.97;6316840;27;98010;-70
2022/04/20 14:23:17;;;;;;;;;19.00;18.00;;;;;13.84;35.56;98384.25;6322821;27;99092;-70
2022/04/20 14:33:10;;;;;;;;;22.00;20.00;;;;;13.61;35.43;98371.81;6308318;27;98199;-71
2022/04/20 14:36:14;;;;;;;;;20.40;19.40;;;;;13.58;35.65;98366.91;6312288;27;98462;-69
2022/04/20 14:39:18;;;;;;;;;21.80;19.40;;;;;13.72;35.55;98368.16;6310631;27;98464;-71
2022/04/20 14:42:21;;;;;;;;;18.00;17.00;;;;;13.72;35.42;98365.44;6325790;27;97732;-69
2022/04/20 14:45:26;;;;;;;;;16.00;13.40;;;;;13.80;35.49;98380.41;6327507;27;98041;-69
2022/04/20 14:48:29;;;;;;;;;18.60;17.60;;;;;13.80;35.16;98381.22;6327011;27;98046;-69
2022/04/20 14:51:35;;;;;;;;;18.75;16.00;;;;;13.81;35.04;98374.75;6326876;27;97477;-69
2022/04/20 14:54:40;;;;;;;;;17.00;15.20;;;;;13.81;35.08;98371.22;6333934;27;96489;-69
2022/04/20 14:58:05;;;;;;;;;17.80;16.00;;;;;13.65;35.19;98351.25;6296575;27;97415;-71
2022/04/20 15:01:09;;;;;;;;;16.00;16.00;;;;;13.75;35.05;98381.19;6297813;27;98866;-69
2022/04/20 15:04:12;;;;;;;;;18.00;16.00;;;;;13.87;35.11;98381.03;6314905;27;99176;-71
2022/04/20 15:07:17;;;;;;;;;15.60;14.00;;;;;13.96;35.19;98371.38;6299742;27;97627;-70
2022/04/20 15:10:26;;;;;;;;;16.50;15.00;;;;;13.83;34.72;98364.44;6292276;27;97832;-69
2022/04/20 15:13:29;;;;;;;;;16.40;15.60;;;;;13.94;34.83;98384.34;6314276;27;96489;-70
2022/04/20 15:16:36;;;;;;;;;17.50;16.00;;;;;13.87;34.95;98383.75;6324459;27;98917;-69
2022/04/20 15:19:39;;;;;;;;;14.00;13.00;;;;;13.86;35.10;98380.22;6321165;27;97538;-69
2022/04/20 15:22:45;;;;;;;;;16.75;14.00;;;;;13.89;35.30;98384.28;6305599;27;99015;-70
2022/04/20 15:25:48;;;;;;;;;16.00;15.00;;;;;14.01;35.08;98393.09;6307864;27;97967;-70